Time;durP1;ratioP1;P1;durP2;ratioP2;P2;SDS_P1;SDS_P2;PMS_P1;PMS_P2;Temp;Humidity;BMP_temperature;BMP_pressure;BME280_temperature;BME280_humidity;BME280_pressure;Samples;Min_cycle;Max_cycle;Signal;HPM_P1;HPM_P2
2021/12/03 00:01:07;;;;;;;12.70;1.65;;;6.40;99.90;;;;;;6106805;23;20111;-95
2021/12/03 00:03:34;;;;;;;7.60;1.45;;;5.10;99.90;;;;;;6131519;23;20024;-95
2021/12/03 00:06:00;;;;;;;6.68;1.17;;;5.00;99.90;;;;;;6106454;23;20025;-95
2021/12/03 00:08:26;;;;;;;8.38;1.70;;;6.50;99.90;;;;;;6106002;23;20448;-95
2021/12/03 00:10:56;;;;;;;12.23;1.55;;;3.70;99.90;;;;;;6106207;23;20021;-94
2021/12/03 00:13:22;;;;;;;9.60;1.65;;;8.00;99.90;;;;;;6106694;23;20348;-96
2021/12/03 00:15:49;;;;;;;6.30;1.17;;;4.60;99.90;;;;;;6106584;23;20110;-95
2021/12/03 00:18:15;;;;;;;9.85;1.63;;;6.50;99.90;;;;;;6106785;23;20010;-96
2021/12/03 00:20:41;;;;;;;9.55;1.95;;;7.20;99.90;;;;;;6106856;23;20441;-96
2021/12/03 00:23:07;;;;;;;8.82;1.45;;;5.30;99.90;;;;;;6106392;23;20029;-95
2021/12/03 00:25:34;;;;;;;5.85;1.35;;;6.80;99.90;;;;;;6106893;23;20017;-95
2021/12/03 00:28:00;;;;;;;7.10;1.48;;;7.50;99.90;;;;;;6106842;23;20477;-95
2021/12/03 00:30:26;;;;;;;11.57;1.30;;;7.20;99.90;;;;;;6106694;23;20014;-95
2021/12/03 00:32:52;;;;;;;8.10;1.33;;;5.60;99.90;;;;;;6106181;23;20071;-95
2021/12/03 00:35:18;;;;;;;7.35;1.20;;;7.30;99.90;;;;;;6106308;23;20089;-95
2021/12/03 00:37:46;;;;;;;7.53;1.63;;;7.10;99.90;;;;;;6106262;23;20030;-96
2021/12/03 00:40:15;;;;;;;8.30;1.48;;;7.20;99.90;;;;;;6106794;23;20024;-96
2021/12/03 00:42:41;;;;;;;6.80;1.50;;;7.50;99.90;;;;;;6105941;23;20100;-95
2021/12/03 00:45:10;;;;;;;3.47;1.38;;;5.00;99.90;;;;;;6106203;23;20028;-94
2021/12/03 00:47:37;;;;;;;12.20;1.40;;;5.20;99.90;;;;;;6130903;23;20022;-95
2021/12/03 00:50:05;;;;;;;6.03;1.50;;;6.90;99.90;;;;;;6105929;23;20024;-95
2021/12/03 00:52:33;;;;;;;12.30;1.77;;;4.40;99.90;;;;;;6130770;23;20025;-96
2021/12/03 00:54:59;;;;;;;9.77;1.27;;;3.60;99.90;;;;;;6105947;23;20059;-95
2021/12/03 00:57:25;;;;;;;10.02;1.55;;;6.80;99.90;;;;;;6106713;23;20021;-96
2021/12/03 00:59:52;;;;;;;9.57;1.70;;;5.50;99.90;;;;;;6106064;23;20037;-95
2021/12/03 01:02:17;;;;;;;9.45;1.35;;;6.70;99.90;;;;;;6130726;23;20032;-95
2021/12/03 01:04:46;;;;;;;6.28;1.35;;;6.50;99.90;;;;;;6108411;23;20017;-95
2021/12/03 01:07:14;;;;;;;13.45;1.45;;;6.50;99.90;;;;;;6107831;23;20018;-95
2021/12/03 01:09:40;;;;;;;6.65;1.20;;;6.20;99.90;;;;;;6108298;23;20068;-95
2021/12/03 01:12:06;;;;;;;8.07;1.20;;;6.00;99.90;;;;;;6108083;23;20057;-94
2021/12/03 01:14:32;;;;;;;5.10;1.33;;;6.20;99.90;;;;;;6108593;23;20022;-95
2021/12/03 01:16:58;;;;;;;9.93;1.58;;;7.80;99.90;;;;;;6108418;23;20013;-95
2021/12/03 01:19:24;;;;;;;12.25;1.55;;;5.00;99.90;;;;;;6108185;23;20049;-96
2021/12/03 01:21:50;;;;;;;11.35;1.40;;;6.80;99.90;;;;;;6108020;23;20028;-94
2021/12/03 01:24:16;;;;;;;5.00;1.25;;;7.10;99.90;;;;;;6107653;23;20045;-96
2021/12/03 01:26:43;;;;;;;7.43;1.13;;;7.60;99.90;;;;;;6108118;23;20388;-92
2021/12/03 01:29:09;;;;;;;9.88;1.55;;;5.90;99.90;;;;;;6107475;23;20021;-93
2021/12/03 01:31:35;;;;;;;11.38;1.20;;;7.00;99.90;;;;;;6107768;23;20021;-93
2021/12/03 01:34:01;;;;;;;9.32;1.13;;;4.90;99.90;;;;;;6107801;23;20018;-93
2021/12/03 01:36:26;;;;;;;8.93;1.90;;;6.00;99.90;;;;;;6107715;23;20021;-93
2021/12/03 01:38:52;;;;;;;12.73;1.20;;;7.20;99.90;;;;;;6108295;23;20020;-93
2021/12/03 01:41:18;;;;;;;10.50;1.20;;;7.10;99.90;;;;;;6132262;23;20024;-93
2021/12/03 01:43:44;;;;;;;4.25;1.30;;;6.60;99.90;;;;;;6107715;23;20013;-94
2021/12/03 01:46:13;;;;;;;5.82;1.23;;;6.70;99.90;;;;;;6107857;23;20084;-93
2021/12/03 01:48:40;;;;;;;5.28;1.08;;;7.30;99.90;;;;;;6107971;23;20023;-93
2021/12/03 01:51:06;;;;;;;11.68;1.50;;;6.70;99.90;;;;;;6107893;23;20459;-93
2021/12/03 01:53:35;;;;;;;5.93;0.90;;;5.90;99.90;;;;;;6106953;23;20069;-93
2021/12/03 01:56:05;;;;;;;6.60;1.10;;;3.80;99.90;;;;;;6107793;23;20403;-93
2021/12/03 01:58:31;;;;;;;3.85;1.02;;;4.40;99.90;;;;;;6107428;23;20028;-93
2021/12/03 02:01:02;;;;;;;5.43;1.17;;;6.00;99.90;;;;;;6108096;23;20026;-93
2021/12/03 02:03:32;;;;;;;5.18;1.05;;;7.10;99.90;;;;;;6107833;23;20056;-93
2021/12/03 02:05:59;;;;;;;8.52;2.60;;;6.20;99.90;;;;;;6107991;23;20029;-93
2021/12/03 02:08:26;;;;;;;5.00;0.93;;;5.40;99.90;;;;;;6107745;23;20294;-92
2021/12/03 02:10:52;;;;;;;3.63;0.80;;;6.70;99.90;;;;;;6107255;23;20017;-93
2021/12/03 02:13:19;;;;;;;5.15;1.00;;;7.10;99.90;;;;;;6107251;23;20104;-93
2021/12/03 02:15:45;;;;;;;4.35;1.20;;;6.50;99.90;;;;;;6107253;23;20329;-94
2021/12/03 02:18:12;;;;;;;6.97;1.27;;;7.20;99.90;;;;;;6107973;23;20052;-94
2021/12/03 02:20:44;;;;;;;9.80;1.20;;;6.30;99.90;;;;;;6107292;23;20029;-94
2021/12/03 02:23:10;;;;;;;3.53;0.88;;;5.60;99.90;;;;;;6107818;23;20056;-93
2021/12/03 02:25:36;;;;;;;6.53;0.70;;;6.00;99.90;;;;;;6107799;23;20100;-93
2021/12/03 02:28:02;;;;;;;3.72;0.98;;;5.00;99.90;;;;;;6108072;23;20052;-93
2021/12/03 02:30:28;;;;;;;5.10;1.30;;;5.20;99.90;;;;;;6107165;23;20024;-94
2021/12/03 02:32:54;;;;;;;7.25;1.23;;;5.70;99.90;;;;;;6106976;23;20479;-92
2021/12/03 02:35:22;;;;;;;6.80;1.23;;;6.60;99.90;;;;;;6106956;23;20017;-93
2021/12/03 02:37:48;;;;;;;6.70;1.23;;;6.00;99.90;;;;;;6107180;23;20018;-92
2021/12/03 02:40:15;;;;;;;7.15;1.30;;;6.60;99.90;;;;;;6107334;23;20009;-92
2021/12/03 02:42:42;;;;;;;4.63;1.85;;;6.60;99.90;;;;;;6131612;23;20021;-92
2021/12/03 02:45:09;;;;;;;5.82;1.25;;;6.70;99.90;;;;;;6106913;23;20069;-93
2021/12/03 02:47:36;;;;;;;9.93;1.52;;;5.80;99.90;;;;;;6107465;23;20025;-93
2021/12/03 02:50:03;;;;;;;6.05;1.48;;;7.80;99.90;;;;;;6107603;23;20021;-92
2021/12/03 02:52:29;;;;;;;7.93;1.60;;;4.90;99.90;;;;;;6107373;23;20018;-93
2021/12/03 02:54:55;;;;;;;10.75;1.55;;;5.70;99.90;;;;;;6107138;23;20017;-93
2021/12/03 02:57:21;;;;;;;9.10;1.33;;;8.00;99.90;;;;;;6106829;23;20017;-94
2021/12/03 02:59:47;;;;;;;9.02;1.42;;;5.70;99.90;;;;;;6107002;23;20053;-92
2021/12/03 03:02:12;;;;;;;9.38;1.63;;;8.10;99.90;;;;;;6106478;23;20021;-93
2021/12/03 03:04:38;;;;;;;1.50;0.88;;;4.70;99.90;;;;;;6107255;23;20024;-93
2021/12/03 03:07:04;;;;;;;3.92;0.98;;;7.90;99.90;;;;;;6106401;23;20025;-93
2021/12/03 03:09:31;;;;;;;2.60;0.93;;;6.60;99.90;;;;;;6106598;23;20021;-93
2021/12/03 03:11:58;;;;;;;10.38;1.45;;;7.30;99.90;;;;;;6107122;23;20092;-93
2021/12/03 03:14:24;;;;;;;7.38;1.00;;;6.10;99.90;;;;;;6131235;23;20018;-93
2021/12/03 03:16:52;;;;;;;4.03;0.80;;;6.50;99.90;;;;;;6131659;23;20021;-93
2021/12/03 03:19:21;;;;;;;3.40;1.05;;;8.90;99.90;;;;;;6131671;23;20058;-93
2021/12/03 03:21:47;;;;;;;5.18;1.02;;;6.90;99.90;;;;;;6107040;23;20024;-93
2021/12/03 03:24:15;;;;;;;4.22;0.95;;;6.80;99.90;;;;;;6106628;23;20021;-94
2021/12/03 03:26:43;;;;;;;4.93;0.98;;;6.50;99.90;;;;;;6131038;23;20093;-94
2021/12/03 03:29:11;;;;;;;4.25;0.95;;;4.90;99.90;;;;;;6131453;23;20017;-93
2021/12/03 03:31:38;;;;;;;8.32;1.00;;;3.60;99.90;;;;;;6130891;23;20356;-93
2021/12/03 03:34:06;;;;;;;6.72;1.67;;;5.80;99.90;;;;;;6130943;23;20014;-92
2021/12/03 03:36:33;;;;;;;4.72;1.00;;;5.80;99.90;;;;;;6106566;23;20029;-91
2021/12/03 03:39:00;;;;;;;3.88;0.90;;;2.80;99.90;;;;;;6106125;23;20014;-91
2021/12/03 03:41:26;;;;;;;2.47;0.75;;;3.10;99.90;;;;;;6105821;23;20017;-91
2021/12/03 03:43:51;;;;;;;3.15;0.80;;;4.80;99.90;;;;;;6130406;23;20343;-91
2021/12/03 03:46:17;;;;;;;3.45;1.20;;;6.10;99.90;;;;;;6130383;23;20045;-91
2021/12/03 03:48:43;;;;;;;3.22;0.70;;;4.50;99.90;;;;;;6105889;23;20022;-91
2021/12/03 03:51:09;;;;;;;4.65;1.00;;;6.20;99.90;;;;;;6131015;23;20028;-92
2021/12/03 03:53:38;;;;;;;4.20;0.80;;;6.60;99.90;;;;;;6105888;23;20052;-91
2021/12/03 03:56:05;;;;;;;4.13;1.10;;;6.80;99.90;;;;;;6105688;23;20452;-91
2021/12/03 03:58:31;;;;;;;5.68;1.67;;;7.20;99.90;;;;;;6106254;23;20822;-91
2021/12/03 04:00:57;;;;;;;3.00;1.13;;;5.80;99.90;;;;;;6130311;23;20021;-92
2021/12/03 04:03:23;;;;;;;2.72;0.82;;;7.50;99.90;;;;;;6106303;23;20096;-92
2021/12/03 04:05:49;;;;;;;3.40;0.90;;;5.10;99.90;;;;;;6105922;23;20028;-91
2021/12/03 04:08:14;;;;;;;180.73;6.30;;;7.80;99.90;;;;;;6130212;23;20017;-93
2021/12/03 04:10:40;;;;;;;3.90;1.35;;;8.30;99.90;;;;;;6105667;23;20013;-93
2021/12/03 04:13:06;;;;;;;13.82;1.63;;;6.70;99.90;;;;;;6130275;23;20069;-92
2021/12/03 04:15:32;;;;;;;10.00;1.50;;;5.90;99.90;;;;;;6105869;23;20021;-92
2021/12/03 04:17:58;;;;;;;11.20;1.73;;;6.20;99.90;;;;;;6105906;23;20049;-92
2021/12/03 04:20:23;;;;;;;7.22;1.88;;;7.10;99.90;;;;;;6106156;23;20020;-92
2021/12/03 04:22:49;;;;;;;9.23;1.73;;;7.70;99.90;;;;;;6105937;23;20463;-92
2021/12/03 04:25:19;;;;;;;9.80;1.60;;;6.70;99.90;;;;;;6130621;23;20092;-93
2021/12/03 04:27:46;;;;;;;8.25;1.67;;;6.20;99.90;;;;;;6130353;23;20029;-90
2021/12/03 04:30:16;;;;;;;5.72;1.90;;;6.00;99.90;;;;;;6129860;23;20531;-91
2021/12/03 04:32:42;;;;;;;5.68;1.58;;;5.20;99.90;;;;;;6130178;23;20018;-91
2021/12/03 04:35:08;;;;;;;6.22;2.10;;;6.40;99.90;;;;;;6129897;23;20013;-91
2021/12/03 04:37:34;;;;;;;4.78;1.58;;;5.90;99.90;;;;;;6129320;23;20024;-90
2021/12/03 04:40:00;;;;;;;6.15;1.63;;;6.00;99.90;;;;;;6129652;23;20045;-91
2021/12/03 04:42:26;;;;;;;2.78;1.13;;;6.40;99.90;;;;;;6105430;23;20117;-90
2021/12/03 04:44:51;;;;;;;4.20;1.25;;;5.20;99.90;;;;;;6104976;23;20470;-91
2021/12/03 04:47:17;;;;;;;9.18;1.55;;;6.30;99.90;;;;;;6105761;23;20084;-92
2021/12/03 04:49:43;;;;;;;7.28;1.60;;;7.60;99.90;;;;;;6105768;23;20024;-92
2021/12/03 04:52:09;;;;;;;4.38;1.27;;;5.50;99.90;;;;;;6105810;23;20104;-92
2021/12/03 04:54:34;;;;;;;4.63;1.27;;;8.10;99.90;;;;;;6106091;23;20017;-93
2021/12/03 04:57:00;;;;;;;8.00;1.80;;;4.30;99.90;;;;;;6106254;23;20100;-93
2021/12/03 04:59:26;;;;;;;7.00;1.42;;;7.90;99.90;;;;;;6105758;23;20642;-93
2021/12/03 05:01:56;;;;;;;6.10;1.33;;;7.20;99.90;;;;;;6130166;23;20044;-93
2021/12/03 05:04:22;;;;;;;6.45;1.85;;;6.30;99.90;;;;;;6105713;23;20090;-92
2021/12/03 05:09:32;;;;;;;4.50;1.10;;;6.90;99.90;;;;;;6129979;23;20104;-93
2021/12/03 05:11:59;;;;;;;10.07;1.83;;;5.40;99.90;;;;;;6130352;23;20120;-93
2021/12/03 05:14:24;;;;;;;3.90;1.63;;;7.60;99.90;;;;;;6130238;23;20025;-93
2021/12/03 05:17:10;;;;;;;2.03;1.00;;;7.90;99.90;;;;;;6106315;23;20014;-93
2021/12/03 05:20:25;;;;;;;9.70;1.42;;;6.30;99.90;;;;;;6018579;23;20338;-92
2021/12/03 05:34:24;;;;;;;6.35;1.45;;;4.60;99.90;;;;;;5938394;23;20062;-92
2021/12/03 05:37:04;;;;;;;9.68;1.92;;;8.40;99.90;;;;;;5964192;23;20023;-93
2021/12/03 05:39:43;;;;;;;11.15;1.75;;;5.80;99.90;;;;;;5962897;23;20152;-93
2021/12/03 05:42:11;;;;;;;6.65;1.33;;;6.50;99.90;;;;;;5985550;23;20112;-93
2021/12/03 05:45:00;;;;;;;10.07;1.42;;;5.20;99.90;;;;;;6130560;23;20044;-93
2021/12/03 05:47:29;;;;;;;10.50;1.35;;;6.60;99.90;;;;;;6106299;23;20063;-92
2021/12/03 05:50:02;;;;;;;6.28;1.40;;;7.30;99.90;;;;;;6131613;23;20021;-93
2021/12/03 05:52:47;;;;;;;3.95;1.00;;;5.70;99.90;;;;;;6107935;23;20025;-93
2021/12/03 05:55:19;;;;;;;9.43;1.73;;;7.80;99.90;;;;;;6132396;23;20029;-93
2021/12/03 05:57:46;;;;;;;4.97;1.25;;;6.80;99.90;;;;;;6132036;23;20017;-93
2021/12/03 06:00:24;;;;;;;8.30;1.50;;;7.70;99.90;;;;;;6107717;23;20049;-92
2021/12/03 06:02:52;;;;;;;15.07;1.95;;;6.00;99.90;;;;;;6132362;23;20021;-92
2021/12/03 06:05:22;;;;;;;4.78;1.40;;;5.70;99.90;;;;;;6107836;23;20100;-94
2021/12/03 06:07:49;;;;;;;8.20;2.00;;;6.70;99.90;;;;;;6131693;23;20025;-93
2021/12/03 06:10:15;;;;;;;10.73;1.83;;;7.70;99.90;;;;;;6107873;23;20067;-93
2021/12/03 06:12:48;;;;;;;13.85;2.25;;;6.20;99.90;;;;;;6107952;23;20401;-92
2021/12/03 06:15:16;;;;;;;12.40;2.25;;;8.50;99.90;;;;;;6107896;23;20408;-93
2021/12/03 06:18:09;;;;;;;5.88;1.30;;;8.50;99.90;;;;;;6107561;23;20017;-93
2021/12/03 06:20:40;;;;;;;8.32;1.77;;;6.70;99.90;;;;;;6107790;23;20036;-94
2021/12/03 06:23:14;;;;;;;7.53;1.48;;;7.60;99.90;;;;;;6109910;23;20017;-94
2021/12/03 06:25:58;;;;;;;16.63;1.80;;;5.70;99.90;;;;;;6134020;23;20098;-93
2021/12/03 06:28:28;;;;;;;7.50;1.58;;;5.50;99.90;;;;;;6106818;23;20018;-93
2021/12/03 06:30:57;;;;;;;6.55;1.38;;;8.80;99.90;;;;;;6107116;23;20479;-93
2021/12/03 06:33:34;;;;;;;7.43;1.70;;;5.70;99.90;;;;;;6131809;23;20452;-93
2021/12/03 06:36:12;;;;;;;8.68;1.30;;;6.40;99.90;;;;;;6107340;23;20072;-93
2021/12/03 06:38:47;;;;;;;6.35;1.33;;;6.70;99.90;;;;;;6107663;23;20014;-93
2021/12/03 06:41:33;;;;;;;9.18;1.83;;;6.60;99.90;;;;;;6107409;23;20100;-93
2021/12/03 06:44:09;;;;;;;14.75;2.38;;;5.70;99.90;;;;;;6133669;23;20404;-93
2021/12/03 06:46:47;;;;;;;12.70;2.90;;;6.70;99.90;;;;;;6107562;23;20018;-93
2021/12/03 06:49:13;;;;;;;8.45;1.55;;;7.00;99.90;;;;;;6107407;23;20057;-93
2021/12/03 06:51:45;;;;;;;10.65;1.95;;;6.80;99.90;;;;;;6107218;23;20021;-93
2021/12/03 06:54:11;;;;;;;6.68;1.27;;;5.60;99.90;;;;;;6107520;23;20025;-93
2021/12/03 06:56:51;;;;;;;11.07;2.20;;;5.90;99.90;;;;;;6106915;23;20022;-93
2021/12/03 06:59:27;;;;;;;8.90;1.60;;;6.60;99.90;;;;;;6107464;23;20026;-92
2021/12/03 07:01:53;;;;;;;4.63;1.45;;;4.60;99.90;;;;;;6107183;23;20028;-94
2021/12/03 07:04:38;;;;;;;15.02;1.88;;;6.80;99.90;;;;;;6107810;23;20021;-93
2021/12/03 07:07:03;;;;;;;12.07;2.03;;;6.20;99.90;;;;;;6106319;23;20088;-93
2021/12/03 07:09:41;;;;;;;9.57;2.00;;;6.10;99.90;;;;;;6108988;23;20044;-92
2021/12/03 07:12:09;;;;;;;8.55;1.65;;;6.70;99.90;;;;;;6131602;23;20021;-93
2021/12/03 07:14:36;;;;;;;7.97;1.95;;;6.80;99.90;;;;;;6106649;23;20074;-93
2021/12/03 07:17:05;;;;;;;10.02;1.92;;;8.10;99.90;;;;;;6105955;23;20017;-88
2021/12/03 07:19:32;;;;;;;14.57;2.38;;;6.60;99.90;;;;;;6105135;23;20048;-84
2021/12/03 07:21:58;;;;;;;15.07;2.25;;;5.80;99.90;;;;;;6130295;23;20017;-88
2021/12/03 07:24:24;;;;;;;7.28;1.90;;;7.20;99.90;;;;;;6105967;23;20060;-90
2021/12/03 07:26:51;;;;;;;15.52;2.85;;;8.40;99.90;;;;;;6105137;23;20013;-89
2021/12/03 07:29:16;;;;;;;13.85;2.00;;;6.00;99.90;;;;;;6104854;23;20017;-88
2021/12/03 07:31:42;;;;;;;11.63;2.45;;;7.20;99.90;;;;;;6129720;23;20506;-91
2021/12/03 07:34:10;;;;;;;10.77;2.42;;;8.40;99.90;;;;;;6105673;23;20385;-83
2021/12/03 07:36:36;;;;;;;11.45;2.13;;;7.10;99.90;;;;;;6129429;23;20029;-90
2021/12/03 07:39:03;;;;;;;15.63;2.22;;;7.90;99.90;;;;;;6129381;23;20026;-88
2021/12/03 07:41:29;;;;;;;10.23;2.08;;;8.40;99.90;;;;;;6105303;23;20024;-87
2021/12/03 07:43:55;;;;;;;13.20;2.13;;;6.50;99.90;;;;;;6129580;23;20088;-88
2021/12/03 07:46:21;;;;;;;11.60;2.97;;;8.00;99.90;;;;;;6129666;23;20025;-87
2021/12/03 07:48:47;;;;;;;13.70;2.42;;;7.30;99.90;;;;;;6129483;23;20502;-91
2021/12/03 07:51:15;;;;;;;13.32;2.28;;;7.60;99.90;;;;;;6105597;23;20066;-87
2021/12/03 07:53:41;;;;;;;9.48;1.70;;;8.30;99.90;;;;;;6128872;23;20097;-89
2021/12/03 07:56:08;;;;;;;13.50;2.38;;;5.10;99.90;;;;;;6154807;23;20396;-90
2021/12/03 07:58:34;;;;;;;10.20;2.05;;;8.40;99.90;;;;;;6130209;23;20344;-90
2021/12/03 08:01:00;;;;;;;16.80;2.20;;;7.80;99.90;;;;;;6130660;23;20348;-89
2021/12/03 08:03:26;;;;;;;11.90;2.15;;;6.20;99.90;;;;;;6129902;23;20044;-93
2021/12/03 08:05:52;;;;;;;5.93;1.60;;;6.20;99.90;;;;;;6106222;23;20028;-89
2021/12/03 08:08:26;;;;;;;16.30;1.90;;;5.70;99.90;;;;;;6128749;23;20013;-87
2021/12/03 08:10:55;;;;;;;11.68;1.80;;;6.60;99.90;;;;;;6131062;23;20017;-95
2021/12/03 08:13:21;;;;;;;11.80;2.22;;;7.00;99.90;;;;;;6106245;23;20017;-95
2021/12/03 08:15:48;;;;;;;13.45;2.10;;;7.60;99.90;;;;;;6130826;23;20105;-89
2021/12/03 08:18:15;;;;;;;13.55;2.08;;;7.50;99.90;;;;;;6131548;23;20017;-93
2021/12/03 08:20:40;;;;;;;7.35;2.08;;;4.20;99.90;;;;;;6106656;23;20022;-91
2021/12/03 08:23:06;;;;;;;11.07;1.83;;;5.80;99.90;;;;;;6105351;23;20028;-92
2021/12/03 08:25:33;;;;;;;8.15;1.70;;;6.70;99.90;;;;;;6106409;23;20049;-93
2021/12/03 08:27:59;;;;;;;8.18;1.75;;;4.50;99.90;;;;;;6106286;23;20017;-93
2021/12/03 08:30:29;;;;;;;11.75;1.88;;;5.40;99.90;;;;;;6106989;23;20514;-92
2021/12/03 08:32:55;;;;;;;6.32;1.77;;;4.90;99.90;;;;;;6130578;23;20020;-91
2021/12/03 08:35:20;;;;;;;10.50;1.90;;;6.30;99.90;;;;;;6105929;23;20049;-93
2021/12/03 08:37:48;;;;;;;14.15;1.85;;;6.00;99.90;;;;;;6105959;23;20032;-92
2021/12/03 08:40:14;;;;;;;11.07;2.20;;;6.40;99.90;;;;;;6105655;23;20318;-89
2021/12/03 08:42:40;;;;;;;11.38;1.88;;;4.70;99.90;;;;;;6105267;23;20028;-91
2021/12/03 08:45:07;;;;;;;11.75;2.08;;;7.20;99.90;;;;;;6104677;23;20071;-89
2021/12/03 08:47:34;;;;;;;10.55;2.38;;;4.50;99.90;;;;;;6153253;23;20017;-89
2021/12/03 08:50:05;;;;;;;5.63;1.67;;;5.60;99.90;;;;;;6104776;23;20056;-93
2021/12/03 08:52:46;;;;;;;4.65;1.85;;;6.90;99.90;;;;;;6105205;23;20024;-88
2021/12/03 08:55:12;;;;;;;5.10;1.50;;;5.60;99.90;;;;;;6105257;23;20018;-88
2021/12/03 08:57:37;;;;;;;15.55;3.08;;;7.40;99.90;;;;;;6106168;23;20013;-90
2021/12/03 09:00:11;;;;;;;12.40;1.90;;;6.60;99.90;;;;;;6105747;23;20022;-92
2021/12/03 09:02:37;;;;;;;13.05;2.50;;;6.50;99.90;;;;;;6106613;23;20148;-93
2021/12/03 09:05:07;;;;;;;9.68;2.00;;;6.90;99.90;;;;;;6105542;23;20022;-90
2021/12/03 09:07:32;;;;;;;11.30;2.00;;;6.10;99.90;;;;;;6130218;23;20376;-92
2021/12/03 09:09:58;;;;;;;9.02;2.15;;;6.20;99.90;;;;;;6130118;23;20020;-91
2021/12/03 09:12:24;;;;;;;4.78;1.40;;;6.10;99.90;;;;;;6129610;23;20020;-90
2021/12/03 09:14:54;;;;;;;6.25;1.98;;;5.80;99.90;;;;;;6105811;23;20347;-92
2021/12/03 09:24:56;;;;;;;10.02;1.42;;;8.10;99.90;;;;;;6131574;23;20030;-92
2021/12/03 09:27:22;;;;;;;6.70;1.58;;;6.20;99.90;;;;;;6107825;23;20048;-90
2021/12/03 09:29:49;;;;;;;8.80;2.28;;;8.30;99.90;;;;;;6107014;23;20020;-88
2021/12/03 09:32:21;;;;;;;7.72;1.95;;;6.60;99.90;;;;;;6131636;23;20092;-92
2021/12/03 09:34:47;;;;;;;10.68;2.38;;;7.40;99.90;;;;;;6107006;23;20024;-90
2021/12/03 09:37:13;;;;;;;10.30;1.88;;;8.10;99.90;;;;;;6107356;23;20017;-91
2021/12/03 09:39:42;;;;;;;6.45;2.00;;;8.30;99.90;;;;;;6132057;23;20041;-94
2021/12/03 09:42:08;;;;;;;6.63;1.73;;;8.40;99.90;;;;;;6106967;23;20021;-90
2021/12/03 09:44:38;;;;;;;8.90;2.22;;;6.00;99.90;;;;;;6106951;23;20022;-92
2021/12/03 09:47:06;;;;;;;8.55;1.95;;;8.30;99.90;;;;;;6131128;23;20458;-91
2021/12/03 09:52:14;;;;;;;8.43;1.55;;;7.20;99.90;;;;;;6130955;23;20021;-88
2021/12/03 09:54:43;;;;;;;7.18;1.80;;;9.00;99.90;;;;;;6105938;23;20056;-87
2021/12/03 09:57:16;;;;;;;2.10;1.40;;;6.90;99.90;;;;;;6105942;23;20455;-90
2021/12/03 10:00:06;;;;;;;4.07;1.33;;;7.10;99.90;;;;;;6107077;23;20014;-89
2021/12/03 10:02:54;;;;;;;3.45;1.20;;;8.10;99.90;;;;;;6106495;23;20052;-89
2021/12/03 10:06:52;;;;;;;3.75;1.35;;;6.10;99.90;;;;;;6106186;23;20014;-88
2021/12/03 10:12:00;;;;;;;7.15;1.40;;;8.90;99.90;;;;;;6127748;23;20025;-87
2021/12/03 10:14:36;;;;;;;6.80;1.98;;;6.30;99.90;;;;;;6100992;23;20029;-87
2021/12/03 10:17:39;;;;;;;;;;;6.70;99.90;;;;;;6078491;23;20018;-87
2021/12/03 10:23:03;;;;;;;2.78;1.15;;;7.00;99.90;;;;;;6100767;23;20341;-88
2021/12/03 10:28:11;;;;;;;4.25;1.52;;;5.90;99.90;;;;;;6101858;23;20022;-92
2021/12/03 10:31:00;;;;;;;3.22;1.20;;;6.50;99.90;;;;;;6100988;23;20014;-91
2021/12/03 10:38:58;;;;;;;4.93;1.55;;;6.30;99.90;;;;;;6127289;23;20262;-89
2021/12/03 10:41:43;;;;;;;11.18;1.83;;;7.00;99.90;;;;;;6077128;23;20050;-83
2021/12/03 10:44:19;;;;;;;5.93;1.58;;;8.10;99.90;;;;;;6125280;23;20053;-87
2021/12/03 10:51:49;;;;;;;7.45;3.10;;;7.00;99.90;;;;;;6127330;23;20398;-88
2021/12/03 10:57:39;;;;;;;6.22;2.85;;;4.80;99.90;;;;;;6100929;23;20053;-92
2021/12/03 11:00:44;;;;;;;7.18;2.30;;;5.40;99.90;;;;;;6125092;23;20020;-87
2021/12/03 11:06:24;;;;;;;5.53;2.83;;;6.30;99.90;;;;;;6100502;23;20361;-86
2021/12/03 11:11:40;;;;;;;8.65;3.17;;;6.30;99.90;;;;;;6128364;23;20100;-86
2021/12/03 11:44:44;;;;;;;;;;;5.70;99.90;;;;;;6130102;23;20022;-88
2021/12/03 11:57:31;;;;;;;8.93;3.67;;;4.60;99.90;;;;;;6130026;23;20411;-91
2021/12/03 11:59:54;;;;;;;6.43;3.47;;;5.80;99.90;;;;;;6153423;23;20080;-87
2021/12/03 12:05:43;;;;;;;10.80;3.97;;;5.40;99.90;;;;;;6129445;23;20362;-88
2021/12/03 12:11:20;;;;;;;7.47;3.97;;;3.60;99.90;;;;;;6127658;23;20033;-86
2021/12/03 12:16:33;;;;;;;5.78;3.70;;;9.00;99.90;;;;;;6129405;23;20021;-91
2021/12/03 12:23:10;;;;;;;6.47;4.20;;;6.30;99.90;;;;;;6129778;23;20029;-86
2021/12/03 12:28:09;;;;;;;5.80;4.30;;;6.00;99.90;;;;;;6131367;23;20025;-91
2021/12/03 12:32:08;;;;;;;7.32;4.00;;;4.60;99.90;;;;;;6129921;23;20060;-90
2021/12/03 12:34:46;;;;;;;7.05;4.43;;;6.40;99.90;;;;;;6130274;23;20022;-92
2021/12/03 12:47:44;;;;;;;8.02;5.35;;;7.80;99.90;;;;;;6130329;23;20523;-87
2021/12/03 13:04:00;;;;;;;10.85;4.88;;;3.10;99.90;;;;;;6131787;23;20096;-85
2021/12/03 13:07:01;;;;;;;8.02;5.68;;;5.70;99.90;;;;;;6131449;23;20032;-87
2021/12/03 13:11:38;;;;;;;10.10;4.88;;;7.30;99.90;;;;;;6157368;23;20352;-87
2021/12/03 13:14:44;;;;;;;9.23;5.85;;;3.90;99.90;;;;;;6157643;23;20017;-89
2021/12/03 13:18:00;;;;;;;35.97;7.65;;;7.30;99.90;;;;;;6132623;23;20453;-93
2021/12/03 13:20:37;;;;;;;9.13;6.88;;;5.40;99.90;;;;;;6155114;23;20021;-90
2021/12/03 13:23:42;;;;;;;7.97;4.93;;;8.00;99.90;;;;;;6114767;23;20018;-93
2021/12/03 13:30:08;;;;;;;10.45;5.32;;;6.00;99.90;;;;;;6134490;23;20075;-90
2021/12/03 14:01:58;;;;;;;5.97;4.25;;;4.70;99.90;;;;;;6043815;23;20075;-93
2021/12/03 14:07:31;;;;;;;7.18;4.47;;;8.20;99.90;;;;;;6141944;23;20024;-90
2021/12/03 14:10:07;;;;;;;11.85;4.65;;;9.60;99.90;;;;;;6142071;23;20100;-92
2021/12/03 14:14:05;;;;;;;8.05;4.57;;;3.90;99.90;;;;;;6142085;23;20100;-90
2021/12/03 14:23:15;;;;;;;15.15;4.45;;;8.10;99.90;;;;;;6144382;23;20108;-93
2021/12/03 14:41:40;;;;;;;10.30;4.88;;;5.70;99.90;;;;;;6143023;23;20065;-93
2021/12/03 14:44:21;;;;;;;7.18;5.00;;;10.00;99.90;;;;;;6118033;23;20025;-92
2021/12/03 14:47:09;;;;;;;9.73;4.35;;;5.80;99.90;;;;;;6116812;23;20049;-88
2021/12/03 14:55:34;;;;;;;4.72;3.85;;;5.10;99.90;;;;;;6136103;23;20408;-91
2021/12/03 14:58:02;;;;;;;4.60;4.10;;;9.20;99.90;;;;;;6136195;23;20021;-87
2021/12/03 15:00:46;;;;;;;5.13;4.05;;;4.80;99.90;;;;;;6110570;23;20041;-90
2021/12/03 15:18:13;;;;;;;7.32;4.35;;;4.30;99.90;;;;;;6140391;23;20026;-95
2021/12/03 15:26:07;;;;;;;6.18;3.10;;;8.10;99.90;;;;;;6137569;23;20078;-92
2021/12/03 15:29:11;;;;;;;3.20;2.40;;;6.50;99.90;;;;;;6114609;23;20028;-92
2021/12/03 15:31:45;;;;;;;2.80;2.27;;;6.40;99.90;;;;;;6137155;23;20018;-93
2021/12/03 15:34:38;;;;;;;;;;;;;;;;;;;;;
2021/12/03 15:51:45;;;;;;;8.73;3.28;;;8.00;99.90;;;;;;5120003;28;20085;-91
2021/12/03 15:55:56;;;;;;;5.43;2.10;;;4.00;99.90;;;;;;5117325;28;20778;-91
2021/12/03 16:25:50;;;;;;;7.13;5.00;;;4.70;99.90;;;;;;5094374;28;20087;-91
2021/12/03 16:43:51;;;;;;;6.47;5.85;;;6.00;99.90;;;;;;5089735;28;20523;-92
2021/12/03 16:49:57;;;;;;;7.95;5.78;;;9.50;99.90;;;;;;5094268;28;20055;-89
2021/12/03 16:51:52;;;;;;;8.90;6.78;;;4.20;99.90;;;;;;5077427;28;20059;-89
2021/12/03 16:54:33;;;;;;;11.98;8.30;;;8.30;99.90;;;;;;5078139;28;20044;-90
2021/12/03 16:57:02;;;;;;;10.68;7.53;;;9.80;99.90;;;;;;5078355;28;20127;-90
2021/12/03 16:59:28;;;;;;;10.65;7.60;;;6.80;99.90;;;;;;5078524;28;20399;-90
2021/12/03 17:02:03;;;;;;;11.27;7.15;;;7.40;99.90;;;;;;5045304;28;20044;-89
2021/12/03 17:04:50;;;;;;;11.07;8.82;;;4.50;99.90;;;;;;5061316;28;20047;-90
2021/12/03 17:10:24;;;;;;;17.23;11.27;;;10.10;99.90;;;;;;5078297;28;20052;-90
2021/12/03 17:12:58;;;;;;;10.30;8.05;;;8.90;99.90;;;;;;5060985;28;20079;-90
2021/12/03 17:21:14;;;;;;;17.63;12.02;;;12.00;99.90;;;;;;5078048;28;20074;-90
2021/12/03 17:29:37;;;;;;;10.75;8.30;;;4.50;99.90;;;;;;5077940;28;20093;-91
2021/12/03 17:44:13;;;;;;;21.65;14.48;;;6.50;99.90;;;;;;5076644;28;20056;-92
2021/12/03 17:48:54;;;;;;;15.88;10.18;;;8.20;99.90;;;;;;5078011;28;20048;-92
2021/12/03 17:51:39;;;;;;;11.43;8.77;;;10.10;99.90;;;;;;5061623;28;20036;-92
2021/12/03 17:54:26;;;;;;;10.30;8.53;;;5.20;99.90;;;;;;5077998;28;20044;-92
2021/12/03 17:57:03;;;;;;;11.23;7.57;;;10.90;99.90;;;;;;5061000;28;20393;-92
2021/12/03 17:59:36;;;;;;;21.10;13.05;;;7.70;99.90;;;;;;5060070;28;20047;-92
2021/12/03 18:02:13;;;;;;;11.93;8.98;;;11.50;99.90;;;;;;5060912;28;20109;-92
2021/12/03 18:04:46;;;;;;;11.90;8.05;;;4.30;99.90;;;;;;5077440;28;20044;-91
2021/12/03 18:07:23;;;;;;;8.88;7.65;;;11.30;99.90;;;;;;5061062;28;20040;-92
2021/12/03 18:13:06;;;;;;;10.65;8.32;;;6.20;99.90;;;;;;5077254;28;20048;-93
2021/12/03 18:15:55;;;;;;;9.93;7.53;;;9.30;99.90;;;;;;5076170;28;20044;-92
2021/12/03 18:18:52;;;;;;;10.20;7.50;;;5.70;99.90;;;;;;5076462;28;20091;-92
2021/12/03 18:44:37;;;;;;;14.20;9.18;;;11.00;99.90;;;;;;5069494;28;20101;-96
2021/12/03 18:57:08;;;;;;;14.07;10.18;;;5.30;99.90;;;;;;5077675;28;20047;-96
2021/12/03 18:59:39;;;;;;;14.65;10.55;;;7.20;99.90;;;;;;5060926;28;20131;-95
2021/12/03 19:02:09;;;;;;;12.35;10.43;;;4.80;99.90;;;;;;5063329;28;20097;-95
2021/12/03 19:04:50;;;;;;;11.65;9.15;;;4.90;99.90;;;;;;5061789;28;20040;-96